Tiempo atmosférico en la estación meteorológica de Zorita, Cáceres (413 m.)



Fecha
DESCASC
Temp. máxima en grados centígrados (hora)
DESCASC
Temp. mínima en grados centígrados (hora)
DESCASC
Temp. media en grados centígrados
DESCASC
Racha de viento máxima en m/sg (hora)
DESCASC
Velocidad máxima media en intervalos de 10 minutos(hora)
DESCASC
Precipitaciones diarias en mm
DESCASC
Precipitaciones de 00:00 a 06:00 en mm
DESCASC
Precipitaciones de 06:00 a 12:00 en mm
DESCASC
Precipitaciones de 12:00 a 18:00 en mm
DESCASC
Precipitaciones de 18:00 a 24:00 en mm
DESCASC
29-10-2020 21.7 (16:10) 13.9 (01:30) 17.8 9.17 (12:40) 6.94 (12:40) 0 0 0 0 0
28-10-2020 17.9 (14:10) 12.4 (07:40) 15.1 3.89 (14:10) 2.5 (14:40) 0 0 0 0 0
27-10-2020 15.8 (17:00) 6.2 (00:00) 11 6.67 (17:40) 5 (17:40) 0 0 0 0 0
26-10-2020 15.5 (16:40) 7.1 (00:00) 11.3 11.67 (14:00) 8.33 (10:50) 0.2 0.2 0 0 0
25-10-2020 15.9 (14:50) 10 (00:00) 12.9 12.22 (14:10) 8.89 (17:00) 8.4 0 0.2 5.6 2.6
24-10-2020 18.9 (16:20) 8.6 (00:00) 13.8 6.94 (17:40) 4.44 (18:30) 0 0 0 0 0
23-10-2020 15.9 (18:00) 10.3 (00:00) 13.1 6.94 (17:10) 3.89 (17:10) 18 0.2 2.6 15.2 0
22-10-2020 21 (16:10) 12.7 (00:00) 16.8 9.44 (16:40) 6.11 (16:40) 5.8 0 3.2 0 2.6
21-10-2020 21.8 (17:20) 13.2 (00:00) 17.5 10.28 (14:10) 7.22 (14:10) 5 0.2 0 0 4.8
20-10-2020 20 (00:00) 13.6 (00:00) 16.8 21.39 (22:30) 13.61 (19:20) 71.2 1.6 46.8 5.2 17.6
19-10-2020 28.2 (15:30) 15.7 (00:00) 22 12.5 (15:30) 8.61 (15:50) 0 0 0 0 0
18-10-2020 24.8 (17:30) 11.5 (00:00) 18.1 9.17 (17:00) 5.83 (17:20) 0 0 0 0 0
17-10-2020 22.7 (17:00) 9 (00:00) 15.9 6.94 (15:30) 3.61 (18:50) 0 0 0 0 0
16-10-2020 21.4 (16:40) 11.1 (00:00) 16.3 9.17 (16:50) 5.28 (10:30) 0 0 0 0 0
15-10-2020 23.2 (13:40) 7.2 (00:00) 15.2 9.44 (17:20) 6.67 (01:20) 0 0 0 0 0
14-10-2020 20.9 (15:40) 7.9 (00:00) 14.4 9.72 (17:40) 6.67 (02:10) 0 0 0 0 0
13-10-2020 25.8 (16:20) 11.1 (00:00) 18.4 14.72 (16:00) 7.22 (19:00) 0 0 0 0 0
12-10-2020 22.7 (17:40) 11.5 (00:00) 17.1 8.89 (02:40) 6.39 (02:20) 0 0 0 0 0
11-10-2020 25.7 (16:30) 14.3 (00:00) 20 7.78 (06:10) 5.28 (06:10) 0 0 0 0 0
10-10-2020 29.1 (16:30) 15 (00:00) 22.1 8.06 (17:20) 5.83 (18:50) 0 0 0 0 0
09-10-2020 28.3 (16:30) 16.4 (00:00) 22.3 5.28 (22:50) 4.17 (23:20) 0 0 0 0 0
08-10-2020 30.4 (17:40) 18.9 (00:00) 24.6 8.33 (16:10) 5.83 (11:10) 0 0 0 0 0
07-10-2020 29.1 (17:00) 13.2 (00:00) 21.2 6.11 (01:50) 4.72 (01:50) 0 0 0 0 0
06-10-2020 27.5 (16:50) 12.3 (00:00) 19.9 10.83 (12:20) 6.11 (12:40) -- 0 0 -- 0
05-10-2020 22 (17:00) 9.1 (00:00) 15.6 10.56 (12:00) 7.22 (17:30) 0 0 0 0 0
04-10-2020 20.9 (17:30) 7.8 (00:00) 14.3 13.06 (18:20) 9.17 (15:40) 0 0 0 0 0
03-10-2020 19.2 (16:20) 7.2 (00:00) 13.2 15.56 (16:00) 10.56 (11:50) 0 0 0 0 0
02-10-2020 19 (11:20) 11.1 (00:00) 15.1 21.39 (14:50) 13.61 (11:20) 0 0 0 0 0
01-10-2020 24.6 (16:40) 10.6 (00:00) 17.6 12.5 (17:40) 9.17 (18:00) 0 0 0 0 0

Gráficas

Temp. máximas Temp. mínimas Temp. medias Precipitaciones Rachas de viento máximas Velocidades máximas media en intervalos de 10 minutos

Datos horarios

Fecha y hora oficial Temperatura (ºC) Velocidad del viento (km/h) Dirección del viento Racha (km/h) Dirección de racha Precipitación (mm) Presión (hPa) Tendencia (hPa) Humedad (%)
2020-10-30 23:00:00 17.4 8 Norte 10 Norte 0 -- -- 55
2020-10-30 22:00:00 17.1 9 Nordeste 13 Norte 0 -- -- 58
2020-10-30 21:00:00 17.1 10 Norte 12 Norte 0 -- -- 59
2020-10-30 20:00:00 17.6 9 Norte 10 Norte 0 -- -- 60
2020-10-30 19:00:00 19.7 3 Este 9 Sudeste 0 -- -- 54
2020-10-30 18:00:00 23.1 7 Sudeste 12 Este 0 -- -- 42
2020-10-30 17:00:00 24.6 8 Este 16 Este 0 -- -- 38
2020-10-30 16:00:00 24.7 11 Sudeste 17 Nordeste 0 -- -- 36
2020-10-30 15:00:00 24.6 10 Sudeste 20 Este 0 -- -- 38
2020-10-30 14:00:00 24 13 Este 23 Este 0 -- -- 41
2020-10-30 13:00:00 22.8 15 Este 26 Este 0 -- -- 44
2020-10-30 12:00:00 21.7 15 Este 27 Este 0 -- -- 47
2020-10-30 11:00:00 20.6 16 Este 25 Este 0 -- -- 51
2020-10-30 10:00:00 18.7 18 Este 25 Este 0 -- -- 57
2020-10-30 09:00:00 17.8 17 Nordeste 23 Este 0 -- -- 58
2020-10-30 08:00:00 15.5 17 Nordeste 24 Nordeste 0 -- -- 66
2020-10-30 07:00:00 14.4 17 Este 22 Nordeste 0 -- -- 72
2020-10-30 06:00:00 15.4 16 Este 25 Nordeste 0 -- -- 68
2020-10-30 05:00:00 15.2 17 Nordeste 22 Nordeste 0 -- -- 70
2020-10-30 04:00:00 15.3 15 Este 21 Este 0 -- -- 71
2020-10-30 03:00:00 16.7 14 Este 21 Este 0 -- -- 65
2020-10-30 02:00:00 17.4 17 Nordeste 23 Este 0 -- -- 61
2020-10-30 01:00:00 17.6 17 Nordeste 24 Nordeste 0 -- -- 61
2020-10-30 00:00:00 17.1 18 Este 21 Este 0 -- -- 62
2020-10-29 23:00:00 18.4 15 Nordeste 19 Nordeste 0 -- -- 57
2020-10-29 22:00:00 18.5 15 Nordeste 20 Nordeste 0 -- -- 61
2020-10-29 21:00:00 18.3 13 Nordeste 20 Nordeste 0 -- -- 63
2020-10-29 20:00:00 18.3 13 Nordeste 18 Nordeste 0 -- -- 65
2020-10-29 19:00:00 18.7 10 Nordeste 15 Este 0 -- -- 64
2020-10-29 18:00:00 20.7 8 Este 13 Sudeste 0 -- -- 56
2020-10-29 17:00:00 21.7 9 Este 19 Este 0 -- -- 51
2020-10-29 16:00:00 21.4 12 Este 22 Este 0 -- -- 53
2020-10-29 15:00:00 20.7 15 Este 26 Este 0 -- -- 56
2020-10-29 14:00:00 19.6 18 Este 31 Este 0 -- -- 58
2020-10-29 13:00:00 18.8 23 Este 33 Este 0 -- -- 58
2020-10-29 12:00:00 17.8 22 Este 28 Este 0 -- -- 63
2020-10-29 11:00:00 17.4 18 Este 25 Este 0 -- -- 65
2020-10-29 10:00:00 16.7 13 Este 19 Este 0 -- -- 70
2020-10-29 09:00:00 14.5 10 Este 13 Este 0 -- -- 80
2020-10-29 08:00:00 14.6 3 Nordeste 9 Nordeste 0 -- -- 81
2020-10-29 07:00:00 14.4 6 Nordeste 11 Nordeste 0 -- -- 85
2020-10-29 06:00:00 14.3 9 Nordeste 12 Nordeste 0 -- -- 87
2020-10-29 05:00:00 14.5 10 Este 13 Este 0 -- -- 87
2020-10-29 04:00:00 14.6 8 Este 11 Este 0 -- -- 87
2020-10-29 03:00:00 14.6 8 Este 10 Este 0 -- -- 87
2020-10-29 02:00:00 14 8 Nordeste 9 Nordeste 0 -- -- 91
2020-10-29 01:00:00 14.2 5 Nordeste 9 Nordeste 0 -- -- 89
2020-10-29 00:00:00 14.3 5 Nordeste 6 Este 0 -- -- 90
2020-10-28 23:00:00 14.3 2 Norte 5 Norte 0 -- -- 91
2020-10-28 22:00:00 15 2 Sudeste 4 Sudeste 0 -- -- 85
2020-10-28 21:00:00 15.8 0 Calma 3 Norte 0 -- -- 82
2020-10-28 20:00:00 16 3 Nordeste 4 Nordeste 0 -- -- 78
2020-10-28 19:00:00 16.3 0 Calma 7 Oeste 0 -- -- 78
2020-10-28 18:00:00 16.8 5 Oeste 6 Oeste 0 -- -- 73
2020-10-28 17:00:00 17.3 5 Sudoeste 12 Sudoeste 0 -- -- 68
2020-10-28 16:00:00 17.9 5 Sudoeste 12 Sur 0 -- -- 65
2020-10-28 15:00:00 17.1 7 Oeste 14 Sudoeste 0 -- -- 67
2020-10-28 14:00:00 17.7 6 Sur 13 Sudoeste 0 -- -- 65
2020-10-28 13:00:00 16.6 4 Sudoeste 10 Oeste 0 -- -- 66
2020-10-28 12:00:00 15.9 6 Sur 12 Sur 0 -- -- 69
2020-10-28 11:00:00 14.7 6 Sudoeste 13 Sudoeste 0 -- -- 73
2020-10-28 10:00:00 14.2 5 Sur 9 Sur 0 -- -- 79
2020-10-28 09:00:00 12.8 3 Sur 5 Sur 0 -- -- 89
2020-10-28 08:00:00 12.4 0 Calma 4 Sur 0 -- -- 91
2020-10-28 07:00:00 12.7 3 Sur 7 Noroeste 0 -- -- 89
2020-10-28 06:00:00 12.9 5 Noroeste 10 Noroeste 0 -- -- 81
2020-10-28 05:00:00 12.9 7 Noroeste 11 Noroeste 0 -- -- 80
2020-10-28 04:00:00 12.9 8 Noroeste 10 Oeste 0 -- -- 80
2020-10-28 03:00:00 12.7 0 Calma 4 Oeste 0 -- -- 82
2020-10-28 02:00:00 12.9 0 Calma 4 Oeste 0 -- -- 80
2020-10-28 01:00:00 12.8 0 Calma 3 Oeste 0 -- -- 77
2020-10-28 00:00:00 12.9 0 Calma 2 Sudoeste 0 -- -- 79
2020-10-27 23:00:00 12.9 2 Sur 6 Oeste 0 -- -- 77
2020-10-27 22:00:00 13 2 Noroeste 3 Oeste 0 -- -- 76
2020-10-27 21:00:00 12.9 0 Calma 7 Noroeste 0 -- -- 72
2020-10-27 20:00:00 12.7 7 Noroeste 12 Oeste 0 -- -- 72
2020-10-27 19:00:00 13.9 9 Oeste 18 Oeste 0 -- -- 64
2020-10-27 18:00:00 14.6 15 Oeste 24 Noroeste 0 -- -- 58
2020-10-27 17:00:00 15.8 15 Oeste 22 Oeste 0 -- -- 54
2020-10-27 16:00:00 15.3 12 Oeste 21 Oeste 0 -- -- 57
2020-10-27 15:00:00 15.1 12 Oeste 21 Noroeste 0 -- -- 58
2020-10-27 14:00:00 14.5 8 Sudoeste 14 Sur 0 -- -- 60
2020-10-27 13:00:00 13.9 10 Sudoeste 18 Sudoeste 0 -- -- 62
2020-10-27 12:00:00 13.6 8 Sudoeste 14 Sudoeste 0 -- -- 62
2020-10-27 11:00:00 12.2 6 Oeste 12 Sudoeste 0 -- -- 65
2020-10-27 10:00:00 10.8 4 Sur 8 Sudeste 0 -- -- 71
2020-10-27 09:00:00 8.6 5 Noroeste 11 Noroeste 0 -- -- 77
2020-10-27 08:00:00 6.5 10 Noroeste 17 Noroeste 0 -- -- 83
2020-10-27 07:00:00 6.7 15 Noroeste 18 Noroeste 0 -- -- 81
2020-10-27 06:00:00 6.3 10 Noroeste 14 Noroeste 0 -- -- 82
2020-10-27 05:00:00 6.7 7 Oeste 14 Noroeste 0 -- -- 79
2020-10-27 04:00:00 7.6 12 Noroeste 18 Noroeste 0 -- -- 75
2020-10-27 03:00:00 8.2 14 Noroeste 20 Noroeste 0 -- -- 74
2020-10-27 02:00:00 8.6 12 Noroeste 16 Noroeste 0 -- -- 71
2020-10-27 01:00:00 8.8 13 Noroeste 16 Norte 0 -- -- 70
2020-10-27 00:00:00 8.9 4 Noroeste 6 Sudoeste 0 -- -- 70
2020-10-26 23:00:00 9.3 5 Sur 12 Noroeste 0 -- -- 68
2020-10-26 22:00:00 10 12 Noroeste 17 Noroeste 0 -- -- 64
2020-10-26 21:00:00 10.2 5 Noroeste 12 Noroeste 0 -- -- 62
2020-10-26 20:00:00 10.4 7 Noroeste 14 Oeste 0 -- -- 65
2020-10-26 19:00:00 11.9 11 Oeste 14 Oeste 0 -- -- 58
2020-10-26 18:00:00 14 11 Noroeste 36 Oeste 0 -- -- 49
2020-10-26 17:00:00 15.1 23 Noroeste 36 Noroeste 0 -- -- 45
2020-10-26 16:00:00 15 21 Noroeste 40 Noroeste 0 -- -- 45
2020-10-26 15:00:00 14.3 28 Noroeste 39 Noroeste 0 -- -- 47
2020-10-26 14:00:00 14.3 26 Noroeste 42 Noroeste 0 -- -- 48
2020-10-26 13:00:00 13.1 24 Noroeste 37 Noroeste 0 -- -- 60
2020-10-26 12:00:00 12.7 24 Noroeste 39 Noroeste 0 -- -- 63
2020-10-26 11:00:00 11.5 23 Noroeste 41 Noroeste 0 -- -- 68
2020-10-26 10:00:00 10.6 18 Noroeste 27 Noroeste 0 -- -- 76
2020-10-26 09:00:00 8.5 21 Noroeste 28 Noroeste 0 -- -- 87
2020-10-26 08:00:00 7.2 19 Noroeste 25 Noroeste 0 -- -- 92
2020-10-26 07:00:00 7.6 13 Oeste 22 Oeste 0 -- -- 92
2020-10-26 06:00:00 7.8 13 Oeste 17 Noroeste 0 -- -- 94
2020-10-26 05:00:00 8.3 13 Noroeste 15 Oeste 0 -- -- 92
2020-10-26 04:00:00 9.1 14 Oeste 21 Oeste 0 -- -- 90
2020-10-26 03:00:00 9.2 17 Oeste 35 Oeste 0 -- -- 89
2020-10-26 02:00:00 9.9 22 Oeste 32 Oeste 0 -- -- 87
2020-10-26 01:00:00 10.9 21 Oeste 32 Oeste 0.2 -- -- 87
2020-10-26 00:00:00 11.5 19 Oeste 28 Oeste 0 -- -- 89
2020-10-25 23:00:00 11.7 20 Oeste 29 Oeste 0 -- -- 88
2020-10-25 22:00:00 11.8 14 Oeste 30 Oeste 0 -- -- 89
2020-10-25 21:00:00 12.4 15 Oeste 23 Oeste 0.6 -- -- 95
2020-10-25 20:00:00 12.7 15 Sudoeste 25 Sudoeste 0 -- -- 96
2020-10-25 19:00:00 12.4 13 Sudoeste 35 Oeste 2 -- -- 95
2020-10-25 18:00:00 13.6 23 Oeste 43 Sudoeste 3.4 -- -- 94
2020-10-25 17:00:00 14.3 32 Sudoeste 42 Sudoeste 0.8 -- -- 96
2020-10-25 16:00:00 14.3 17 Sudoeste 41 Sudoeste 1.2 -- -- 95
2020-10-25 15:00:00 15.9 21 Sudoeste 44 Sudoeste 0 -- -- 79
2020-10-25 14:00:00 15.3 30 Sudoeste 42 Sudoeste 0 -- -- 84
2020-10-25 13:00:00 14.2 20 Sudoeste 29 Sur 0.2 -- -- 93
2020-10-25 12:00:00 12.5 3 Sur 16 Este 0 -- -- 92
2020-10-25 11:00:00 11.7 11 Este 21 Este 0 -- -- 92
2020-10-25 10:00:00 11 12 Este 15 Este 0.2 -- -- 94
2020-10-25 09:00:00 11.3 6 Nordeste 10 Este 0 -- -- 91
2020-10-25 08:00:00 11.3 4 Este 6 Este 0 -- -- 85
2020-10-25 07:00:00 11 5 Este 8 Este 0 -- -- 86
2020-10-25 06:00:00 10.9 0 Calma 9 Este 0 -- -- 87
2020-10-25 05:00:00 10.4 4 Sudeste 8 Sudeste 0 -- -- 90
2020-10-25 04:00:00 10.2 2 Sur 6 Sudoeste 0 -- -- 89
2020-10-25 03:00:00 10.3 0 Calma 6 Oeste 0 -- -- 85
2020-10-25 02:00:00 10.5 0 Calma 7 Sudoeste 0 -- -- 82
2020-10-25 01:00:00 11.8 3 Sur 7 Noroeste 0 -- -- 71
2020-10-25 00:00:00 13.2 5 Noroeste 8 Noroeste 0 -- -- 65
2020-10-24 23:00:00 12.7 2 Oeste 8 Oeste 0 -- -- 67
2020-10-24 22:00:00 13.1 6 Noroeste 9 Noroeste 0 -- -- 64
2020-10-24 21:00:00 13.6 6 Oeste 9 Sudoeste 0 -- -- 62
2020-10-24 20:00:00 14.4 7 Sudoeste 17 Sudoeste 0 -- -- 61
2020-10-24 19:00:00 16.5 10 Sudoeste 21 Sudoeste 0 -- -- 54
2020-10-24 18:00:00 18.1 14 Sudoeste 25 Sudoeste 0 -- -- 45
2020-10-24 17:00:00 18.7 10 Sudoeste 23 Oeste 0 -- -- 47
2020-10-24 16:00:00 18.5 12 Sudoeste 18 Sudoeste 0 -- -- 48
2020-10-24 15:00:00 17.6 10 Sudoeste 16 Sudoeste 0 -- -- 60
2020-10-24 14:00:00 16.4 7 Sudoeste 13 Sudoeste 0 -- -- 64
2020-10-24 13:00:00 15.1 3 Sur 9 Sur 0 -- -- 78
2020-10-24 12:00:00 12.3 6 Este 13 Este 0 -- -- 94
2020-10-24 11:00:00 10.9 8 Nordeste 16 Este 0 -- -- 97
2020-10-24 10:00:00 10.7 12 Este 18 Este 0 -- -- 93
2020-10-24 09:00:00 9.4 7 Nordeste 9 Este 0 -- -- 94
2020-10-24 08:00:00 8.7 3 Este 5 Este 0 -- -- 93
2020-10-24 07:00:00 9.1 5 Este 5 Este 0 -- -- 92
2020-10-24 06:00:00 9.4 5 Nordeste 6 Nordeste 0 -- -- 91
2020-10-24 05:00:00 9.9 3 Este 6 Este 0 -- -- 88
2020-10-24 04:00:00 11.2 3 Sur 5 Noroeste 0 -- -- 88
2020-10-24 03:00:00 11 4 Noroeste 6 Norte 0 -- -- 89
2020-10-24 02:00:00 10.9 5 Nordeste 9 Nordeste 0 -- -- 89
2020-10-24 01:00:00 11.5 4 Norte 10 Nordeste 0 -- -- 88
2020-10-24 00:00:00 12 8 Nordeste 13 Nordeste 0 -- -- 88
2020-10-23 23:00:00 12.4 8 Nordeste 11 Nordeste 0 -- -- 90
2020-10-23 22:00:00 12.4 7 Nordeste 9 Nordeste 0 -- -- 91
2020-10-23 21:00:00 12.9 6 Nordeste 9 Este 0 -- -- 91
2020-10-23 20:00:00 13.6 5 Este 11 Este 0 -- -- 91
2020-10-23 19:00:00 15.4 6 Noroeste 8 Noroeste 0 -- -- 74
2020-10-23 18:00:00 15.9 3 Norte 25 Noroeste 0.6 -- -- 75
2020-10-23 17:00:00 15.2 3 Nordeste 8 Norte 0.4 -- -- 81
2020-10-23 16:00:00 13.7 5 Nordeste 14 Noroeste 2.2 -- -- 84
2020-10-23 15:00:00 12.9 6 Norte 15 Norte 10.8 -- -- 89
2020-10-23 14:00:00 13.6 2 Sudeste 8 Oeste 1 -- -- 87
2020-10-23 13:00:00 13.7 4 Oeste 8 Oeste 0.2 -- -- 86
2020-10-23 12:00:00 12.9 7 Oeste 12 Sur 0 -- -- 89
2020-10-23 11:00:00 11.5 6 Sudoeste 13 Sudoeste 0.4 -- -- 96
2020-10-23 10:00:00 11.3 6 Sudeste 12 Sudeste 2.2 -- -- 96
2020-10-23 09:00:00 10.8 5 Nordeste 10 Este 0 -- -- 97
2020-10-23 08:00:00 10.4 8 Nordeste 10 Nordeste 0 -- -- 96
2020-10-23 07:00:00 10.8 5 Este 8 Este 0 -- -- 95
2020-10-23 06:00:00 10.8 0 Calma 6 Noroeste 0 -- -- 96
2020-10-23 05:00:00 10.9 4 Noroeste 5 Oeste 0 -- -- 96
2020-10-23 04:00:00 11.2 3 Sudoeste 5 Sur 0 -- -- 95
2020-10-23 03:00:00 11.7 0 Calma 10 Oeste 0 -- -- 94
2020-10-23 02:00:00 12 0 Calma 7 Sur 0 -- -- 93
2020-10-23 01:00:00 12.3 6 Oeste 9 Oeste 0.2 -- -- 93
2020-10-23 00:00:00 12.7 5 Oeste 14 Oeste 0.8 -- -- 94
2020-10-22 23:00:00 13.2 10 Oeste 13 Sudoeste 0.4 -- -- 90
2020-10-22 22:00:00 13.6 8 Sur 18 Este 0.2 -- -- 85
2020-10-22 21:00:00 13.8 9 Este 17 Este 1.2 -- -- 90
2020-10-22 20:00:00 14.6 8 Este 19 Nordeste 0 -- -- 83
2020-10-22 19:00:00 15.2 12 Nordeste 25 Este 0 -- -- 79
2020-10-22 18:00:00 18.4 9 Oeste 22 Oeste 0 -- -- 59
2020-10-22 17:00:00 18.8 17 Oeste 34 Oeste 0 -- -- 55
2020-10-22 16:00:00 20.7 15 Sur 21 Sudoeste 0 -- -- 58
2020-10-22 15:00:00 19.5 13 Sur 21 Sudoeste 0 -- -- 67
2020-10-22 14:00:00 18.1 14 Sudoeste 23 Sudoeste 0 -- -- 72
2020-10-22 13:00:00 18 18 Sur 23 Sur 0 -- -- 75
2020-10-22 12:00:00 16.9 13 Sur 20 Sudeste 0 -- -- 83
2020-10-22 11:00:00 16.3 8 Sudeste 11 Sur 2.6 -- -- 87
2020-10-22 10:00:00 14.9 7 Sudeste 10 Sudeste 0.4 -- -- 94
2020-10-22 09:00:00 14.1 5 Sudeste 10 Sudeste 0 -- -- 95
2020-10-22 08:00:00 14.2 5 Este 12 Este 0.2 -- -- 93
2020-10-22 07:00:00 14.2 9 Este 19 Nordeste 0 -- -- 91
2020-10-22 06:00:00 13.9 14 Nordeste 22 Nordeste 0 -- -- 91
2020-10-22 05:00:00 13.7 14 Nordeste 22 Nordeste 0 -- -- 90
2020-10-22 04:00:00 13.6 14 Nordeste 22 Nordeste 0 -- -- 91
2020-10-22 03:00:00 14 14 Este 24 Este 0 -- -- 92
2020-10-22 02:00:00 14.1 12 Este 18 Sudeste 0 -- -- 93
2020-10-22 01:00:00 14.4 12 Sudeste 17 Sudeste 0 -- -- 94
2020-10-22 00:00:00 14.3 4 Este 17 Sudeste 0.4 -- -- 94
2020-10-21 23:00:00 14.6 10 Sur 18 Norte 0.4 -- -- 91
2020-10-21 22:00:00 14.4 15 Noroeste 23 Norte 0 -- -- 88
2020-10-21 21:00:00 14.2 16 Noroeste 35 Sudoeste 4 -- -- 89
2020-10-21 20:00:00 18.3 9 Sur 14 Sur 0 -- -- 62
2020-10-21 19:00:00 19.3 7 Sudoeste 22 Sudoeste 0 -- -- 53
2020-10-21 18:00:00 21.3 17 Sudoeste 31 Sudoeste 0 -- -- 44
2020-10-21 17:00:00 21.6 20 Sudoeste 37 Sudoeste 0 -- -- 43
2020-10-21 16:00:00 21 19 Sur 32 Sudoeste 0 -- -- 45
2020-10-21 15:00:00 20.1 18 Sudoeste 37 Sudoeste 0 -- -- 60
2020-10-21 14:00:00 19.7 24 Sudoeste 35 Sur 0 -- -- 62
2020-10-21 13:00:00 18.3 22 Sudoeste 32 Sudoeste 0 -- -- 70
2020-10-21 12:00:00 16.6 19 Sudoeste 32 Sur 0 -- -- 79
2020-10-21 11:00:00 16.3 18 Sur 26 Sur 0 -- -- 82
2020-10-21 10:00:00 14.7 7 Sudeste 11 Sudeste 0 -- -- 89
2020-10-21 09:00:00 14 7 Sudeste 10 Sudeste 0 -- -- 90
2020-10-21 08:00:00 13.7 7 Sudeste 14 Sudeste 0 -- -- 91
2020-10-21 07:00:00 14 9 Sudeste 14 Sudeste 0 -- -- 90
2020-10-21 06:00:00 13.6 10 Sudeste 17 Sur 0 -- -- 91
2020-10-21 05:00:00 13.2 10 Sudeste 21 Sudeste 0 -- -- 92
2020-10-21 04:00:00 14.1 15 Sudeste 25 Sudeste 0 -- -- 90
2020-10-21 03:00:00 14 12 Sudeste 27 Sur 0 -- -- 91
2020-10-21 02:00:00 14.2 19 Sur 26 Sur 0 -- -- 91
2020-10-21 01:00:00 13.9 10 Sur 20 Sur 0.2 -- -- 96
2020-10-21 00:00:00 13.9 17 Sur 24 Sur 0.2 -- -- 96
2020-10-20 23:00:00 14 19 Oeste 77 Sudoeste 10.6 -- -- 95
2020-10-20 22:00:00 16.6 35 Sudeste 58 Sur 4.4 -- -- 93
2020-10-20 21:00:00 17.1 43 Sur 67 Sur 0.4 -- -- 87
2020-10-20 20:00:00 16.5 41 Sudeste 75 Sur 1.6 -- -- 84
2020-10-20 19:00:00 18.1 42 Sur 66 Sur 0.4 -- -- 75
2020-10-20 18:00:00 18.6 29 Sur 48 Sudeste 1.6 -- -- 72
2020-10-20 17:00:00 18.2 28 Sur 41 Sur 1.2 -- -- 76
2020-10-20 16:00:00 18 27 Sudeste 45 Sudeste 0.6 -- -- 78
2020-10-20 15:00:00 17.6 21 Este 36 Este 0.4 -- -- 78
2020-10-20 14:00:00 16.5 24 Nordeste 36 Nordeste 0 -- -- 88
2020-10-20 13:00:00 15.1 25 Nordeste 37 Nordeste 1.4 -- -- 93
2020-10-20 12:00:00 14.2 19 Nordeste 29 Este 5.6 -- -- 95
2020-10-20 11:00:00 14.1 17 Nordeste 23 Este 11.4 -- -- 95
2020-10-20 10:00:00 14.1 3 Este 25 Este 15 -- -- 94
2020-10-20 09:00:00 14.2 11 Este 20 Este 7.8 -- -- 93
2020-10-20 08:00:00 14.5 8 Sudeste 24 Sur 4.4 -- -- 92
2020-10-20 07:00:00 14.6 12 Este 34 Sudeste 2.6 -- -- 88
2020-10-20 06:00:00 16 14 Este 31 Este 0.2 -- -- 66
2020-10-20 05:00:00 15.5 19 Este 33 Este 0.4 -- -- 73
2020-10-20 04:00:00 15.3 16 Nordeste 35 Sudeste 1 -- -- 76
2020-10-20 03:00:00 17.8 17 Sudeste 32 Sudeste 0 -- -- 60
2020-10-20 02:00:00 18.7 19 Sudeste 29 Sudeste 0 -- -- 49
2020-10-20 01:00:00 19 12 Sudeste 27 Sur 0 -- -- 49
2020-10-20 00:00:00 20 21 Sur 34 Sur 0 -- -- 44
2020-10-19 23:00:00 20.1 9 Sur 17 Sur 0 -- -- 43
2020-10-19 22:00:00 21.4 11 Sudoeste 23 Sur 0 -- -- 35
2020-10-19 21:00:00 22.5 13 Sur 24 Sur 0 -- -- 30
2020-10-19 20:00:00 23.7 23 Sur 36 Sur 0 -- -- 26
2020-10-19 19:00:00 25 21 Sur 40 Sur 0 -- -- 21
2020-10-19 18:00:00 25.9 26 Sur 39 Sur 0 -- -- 18
2020-10-19 17:00:00 26.9 24 Sur 37 Sur 0 -- -- 17
2020-10-19 16:00:00 28.1 28 Sur 45 Sur 0 -- -- 16
2020-10-19 15:00:00 26.2 23 Sudeste 36 Sudeste 0 -- -- 17
2020-10-19 14:00:00 24.8 19 Este 36 Este 0 -- -- 19
2020-10-19 13:00:00 22.1 28 Este 40 Este 0 -- -- 22
2020-10-19 12:00:00 21.6 26 Este 39 Este 0 -- -- 22
2020-10-19 11:00:00 19.8 24 Este 40 Este 0 -- -- 25
2020-10-19 10:00:00 18.1 23 Este 32 Este 0 -- -- 28
2020-10-19 09:00:00 15.8 18 Este 28 Este 0 -- -- 32
2020-10-19 08:00:00 16.2 22 Este 32 Este 0 -- -- 32
2020-10-19 07:00:00 17.4 22 Este 30 Este 0 -- -- 30
2020-10-19 06:00:00 17.8 23 Este 30 Este 0 -- -- 29
2020-10-19 05:00:00 17.7 21 Este 27 Nordeste 0 -- -- 29
2020-10-19 04:00:00 17.4 17 Nordeste 30 Nordeste 0 -- -- 28
2020-10-19 03:00:00 17.7 22 Nordeste 30 Nordeste 0 -- -- 25
2020-10-19 02:00:00 17.6 19 Nordeste 29 Nordeste 0 -- -- 24
2020-10-19 01:00:00 17.9 19 Nordeste 26 Este 0 -- -- 24
2020-10-19 00:00:00 17.6 18 Nordeste 23 Nordeste 0 -- -- 25
2020-10-18 23:00:00 17.3 17 Este 23 Este 0 -- -- 27
2020-10-18 22:00:00 20.1 17 Nordeste 23 Nordeste 0 -- -- 22
2020-10-18 21:00:00 20.2 15 Nordeste 21 Nordeste 0 -- -- 22
2020-10-18 20:00:00 20.8 14 Este 18 Este 0 -- -- 20
2020-10-18 19:00:00 23.5 15 Este 27 Este 0 -- -- 17
2020-10-18 18:00:00 24.3 19 Este 28 Este 0 -- -- 17
2020-10-18 17:00:00 24.6 18 Sudeste 33 Sudeste 0 -- -- 16
2020-10-18 16:00:00 23.4 13 Sudeste 25 Este 0 -- -- 19
2020-10-18 15:00:00 23.1 14 Este 28 Este 0 -- -- 19
2020-10-18 14:00:00 22.8 15 Este 30 Sudeste 0 -- -- 19
2020-10-18 13:00:00 21.7 18 Este 28 Este 0 -- -- 21
2020-10-18 12:00:00 20.4 19 Este 25 Este 0 -- -- 23
2020-10-18 11:00:00 18.8 17 Este 27 Este 0 -- -- 26
2020-10-18 10:00:00 16.3 19 Este 25 Este 0 -- -- 31
2020-10-18 09:00:00 15.4 15 Nordeste 21 Nordeste 0 -- -- 32
2020-10-18 08:00:00 14.4 16 Nordeste 22 Este 0 -- -- 35
2020-10-18 07:00:00 15.1 15 Nordeste 21 Nordeste 0 -- -- 33
2020-10-18 06:00:00 14 15 Nordeste 19 Este 0 -- -- 36
2020-10-18 05:00:00 12.8 7 Este 10 Este 0 -- -- 38
2020-10-18 04:00:00 12.3 9 Este 10 Este 0 -- -- 39
2020-10-18 03:00:00 11.6 6 Este 9 Sudeste 0 -- -- 40
2020-10-18 02:00:00 12.7 3 Sudeste 7 Sudeste 0 -- -- 38
2020-10-18 01:00:00 13.7 7 Nordeste 10 Nordeste 0 -- -- 35
2020-10-18 00:00:00 13.9 7 Nordeste 8 Nordeste 0 -- -- 35
2020-10-17 23:00:00 14 4 Norte 9 Nordeste 0 -- -- 34
2020-10-17 22:00:00 14.5 9 Nordeste 10 Nordeste 0 -- -- 32
2020-10-17 21:00:00 15.2 5 Nordeste 9 Norte 0 -- -- 31
2020-10-17 20:00:00 18.1 6 Sur 13 Sur 0 -- -- 27
2020-10-17 19:00:00 20.5 13 Sur 17 Sur 0 -- -- 23
2020-10-17 18:00:00 22.1 9 Sur 18 Sudoeste 0 -- -- 21
2020-10-17 17:00:00 22.7 9 Sudoeste 22 Sudoeste 0 -- -- 21
2020-10-17 16:00:00 22.6 7 Sudoeste 25 Oeste 0 -- -- 21
2020-10-17 15:00:00 21.8 10 Sudoeste 21 Sudoeste 0 -- -- 22
2020-10-17 14:00:00 20.7 9 Sudoeste 17 Sudoeste 0 -- -- 24
2020-10-17 13:00:00 19.4 6 Sur 16 Sudeste 0 -- -- 27
2020-10-17 12:00:00 17.6 8 Sudeste 16 Sudeste 0 -- -- 30
2020-10-17 11:00:00 15.5 11 Este 15 Este 0 -- -- 34
2020-10-17 10:00:00 12.8 10 Este 13 Este 0 -- -- 40
2020-10-17 09:00:00 10.9 8 Nordeste 12 Este 0 -- -- 44
2020-10-17 08:00:00 9.2 10 Nordeste 11 Este 0 -- -- 49
2020-10-17 07:00:00 10 3 Este 10 Nordeste 0 -- -- 46
2020-10-17 06:00:00 10.6 9 Nordeste 11 Nordeste 0 -- -- 44
2020-10-17 05:00:00 11.7 10 Este 12 Este 0 -- -- 40
2020-10-17 04:00:00 10.3 8 Este 11 Este 0 -- -- 44
2020-10-17 03:00:00 10.9 8 Este 10 Este 0 -- -- 42
2020-10-17 02:00:00 11 4 Nordeste 10 Nordeste 0 -- -- 42
2020-10-17 01:00:00 11.9 9 Nordeste 10 Nordeste 0 -- -- 40
2020-10-17 00:00:00 12.6 6 Nordeste 9 Norte 0 -- -- 37
2020-10-16 23:00:00 13 8 Nordeste 15 Norte 0 -- -- 37
2020-10-16 22:00:00 14.5 5 Nordeste 12 Nordeste 0 -- -- 33
2020-10-16 21:00:00 15.1 6 Nordeste 10 Este 0 -- -- 32
2020-10-16 20:00:00 17.1 4 Norte 15 Noroeste 0 -- -- 30
2020-10-16 19:00:00 19.6 10 Noroeste 23 Noroeste 0 -- -- 25
2020-10-16 18:00:00 20.6 8 Norte 21 Noroeste 0 -- -- 23
2020-10-16 17:00:00 21.1 8 Oeste 33 Oeste 0 -- -- 23
2020-10-16 16:00:00 21 9 Sur 25 Sudoeste 0 -- -- 24
2020-10-16 15:00:00 20 5 Norte 20 Sudeste 0 -- -- 25
2020-10-16 14:00:00 19.1 6 Nordeste 19 Este 0 -- -- 27
2020-10-16 13:00:00 18.1 13 Sudeste 26 Sudeste 0 -- -- 29
2020-10-16 12:00:00 16.7 14 Este 24 Este 0 -- -- 32
2020-10-16 11:00:00 15.1 17 Este 25 Este 0 -- -- 36
2020-10-16 10:00:00 13.6 16 Este 26 Este 0 -- -- 39
2020-10-16 09:00:00 12.2 18 Nordeste 24 Nordeste 0 -- -- 41
2020-10-16 08:00:00 11.9 16 Nordeste 21 Nordeste 0 -- -- 42
2020-10-16 07:00:00 12.4 15 Nordeste 21 Nordeste 0 -- -- 41
2020-10-16 06:00:00 12.4 14 Nordeste 24 Nordeste 0 -- -- 41
2020-10-16 05:00:00 12.5 17 Nordeste 23 Nordeste 0 -- -- 40
2020-10-16 04:00:00 12.3 16 Nordeste 22 Este 0 -- -- 40
2020-10-16 03:00:00 12.7 14 Este 18 Este 0 -- -- 39
2020-10-16 02:00:00 14.5 10 Nordeste 17 Nordeste 0 -- -- 34
2020-10-16 01:00:00 14.7 13 Nordeste 17 Nordeste 0 -- -- 34
2020-10-16 00:00:00 14.4 10 Nordeste 15 Norte 0 -- -- 33
2020-10-15 23:00:00 14.3 10 Norte 13 Norte 0 -- -- 32
2020-10-15 22:00:00 15.4 8 Nordeste 21 Este 0 -- -- 28
2020-10-15 21:00:00 15.5 13 Noroeste 15 Noroeste 0 -- -- 28
2020-10-15 20:00:00 16.3 9 Noroeste 21 Oeste 0 -- -- 27
2020-10-15 19:00:00 19.6 15 Oeste 22 Noroeste 0 -- -- 22
2020-10-15 18:00:00 20.7 9 Noroeste 34 Sur 0 -- -- 22
2020-10-15 17:00:00 21.4 12 Sudoeste 19 Sur 0 -- -- 22
2020-10-15 16:00:00 20.9 7 Sur 21 Sudoeste 0 -- -- 22
2020-10-15 15:00:00 20.5 8 Sur 17 Sur 0 -- -- 25
2020-10-15 14:00:00 19.9 10 Sur 19 Sur 0 -- -- 27
2020-10-15 13:00:00 17.5 8 Este 22 Este 0 -- -- 32
2020-10-15 12:00:00 15.9 6 Este 12 Sudeste 0 -- -- 36
2020-10-15 11:00:00 13.1 5 Este 11 Este 0 -- -- 45
2020-10-15 10:00:00 11.2 6 Este 8 Este 0 -- -- 52
2020-10-15 09:00:00 7.5 4 Este 13 Noroeste 0 -- -- 62
2020-10-15 08:00:00 7.6 8 Noroeste 10 Noroeste 0 -- -- 61
2020-10-15 07:00:00 8.7 5 Noroeste 13 Noroeste 0 -- -- 57
2020-10-15 06:00:00 9.1 11 Noroeste 16 Noroeste 0 -- -- 58
2020-10-15 05:00:00 10 13 Noroeste 20 Noroeste 0 -- -- 54
2020-10-15 04:00:00 10.4 17 Noroeste 24 Noroeste 0 -- -- 53
2020-10-15 03:00:00 10.5 13 Noroeste 26 Noroeste 0 -- -- 52
2020-10-15 02:00:00 12.4 22 Noroeste 30 Noroeste 0 -- -- 46
2020-10-15 01:00:00 13.9 22 Noroeste 31 Noroeste 0 -- -- 42
2020-10-15 00:00:00 14.1 22 Noroeste 33 Noroeste 0 -- -- 42
2020-10-14 23:00:00 13.4 21 Noroeste 27 Noroeste 0 -- -- 40
2020-10-14 22:00:00 14.6 18 Noroeste 25 Noroeste 0 -- -- 36
2020-10-14 21:00:00 15 15 Noroeste 20 Noroeste 0 -- -- 34
2020-10-14 20:00:00 16.6 12 Noroeste 29 Noroeste 0 -- -- 30
2020-10-14 19:00:00 19.1 21 Noroeste 33 Noroeste 0 -- -- 26
2020-10-14 18:00:00 20.3 19 Noroeste 35 Noroeste 0 -- -- 24
2020-10-14 17:00:00 20.6 20 Oeste 30 Noroeste 0 -- -- 25
2020-10-14 16:00:00 20.1 10 Noroeste 28 Noroeste 0 -- -- 30
2020-10-14 15:00:00 20.1 12 Sudoeste 26 Sudoeste 0 -- -- 34
2020-10-14 14:00:00 18.5 8 Sudoeste 17 Oeste 0 -- -- 38
2020-10-14 13:00:00 18.3 7 Sur 15 Norte 0 -- -- 41
2020-10-14 12:00:00 15.5 13 Noroeste 24 Noroeste 0 -- -- 46
2020-10-14 11:00:00 13.7 19 Noroeste 27 Noroeste 0 -- -- 50
2020-10-14 10:00:00 11.2 14 Noroeste 22 Noroeste 0 -- -- 59
2020-10-14 09:00:00 8.2 3 Nordeste 19 Oeste 0 -- -- 71
2020-10-14 08:00:00 8.3 13 Oeste 24 Noroeste 0 -- -- 71
2020-10-14 07:00:00 9.7 17 Noroeste 28 Noroeste 0 -- -- 67
2020-10-14 06:00:00 10.4 18 Noroeste 27 Noroeste 0 -- -- 69
2020-10-14 05:00:00 10.5 16 Noroeste 25 Noroeste 0 -- -- 75
2020-10-14 04:00:00 11.5 17 Noroeste 24 Noroeste 0 -- -- 73
2020-10-14 03:00:00 12.1 20 Noroeste 32 Noroeste 0 -- -- 72
2020-10-14 02:00:00 12.8 21 Noroeste 28 Noroeste 0 -- -- 69
2020-10-14 01:00:00 14.5 21 Noroeste 32 Noroeste 0 -- -- 62
2020-10-14 00:00:00 15.6 14 Noroeste 25 Noroeste 0 -- -- 61
2020-10-13 23:00:00 17.9 18 Noroeste 27 Oeste 0 -- -- 55
2020-10-13 22:00:00 18.6 13 Oeste 19 Oeste 0 -- -- 45
2020-10-13 21:00:00 19.8 10 Oeste 21 Oeste 0 -- -- 35
2020-10-13 20:00:00 22.4 17 Oeste 31 Oeste 0 -- -- 30
2020-10-13 19:00:00 24.4 26 Oeste 37 Oeste 0 -- -- 28
2020-10-13 18:00:00 25.4 22 Oeste 38 Oeste 0 -- -- 27
2020-10-13 17:00:00 25.3 26 Noroeste 41 Noroeste 0 -- -- 27
2020-10-13 16:00:00 25.5 21 Oeste 53 Noroeste 0 -- -- 27
2020-10-13 15:00:00 25 16 Sudoeste 25 Sudoeste 0 -- -- 26
2020-10-13 14:00:00 22.8 14 Sudoeste 24 Sudoeste 0 -- -- 26
2020-10-13 13:00:00 19.9 10 Sudoeste 17 Sudoeste 0 -- -- 30
2020-10-13 12:00:00 18.2 10 Sudoeste 14 Oeste 0 -- -- 32
2020-10-13 11:00:00 16.2 5 Sudoeste 9 Sudoeste 0 -- -- 35
2020-10-13 10:00:00 13.6 3 Sur 5 Sudeste 0 -- -- 40
2020-10-13 09:00:00 11.8 3 Sudeste 4 Sudeste 0 -- -- 41
2020-10-13 08:00:00 11.3 0 Calma 4 Este 0 -- -- 41
2020-10-13 07:00:00 13.6 4 Noroeste 11 Noroeste 0 -- -- 35
2020-10-13 06:00:00 13.4 12 Noroeste 14 Noroeste 0 -- -- 38
2020-10-13 05:00:00 13.4 6 Noroeste 8 Noroeste 0 -- -- 36
2020-10-13 04:00:00 11.3 0 Calma 8 Nordeste 0 -- -- 42
2020-10-13 03:00:00 13.1 3 Sudeste 6 Oeste 0 -- -- 37
2020-10-13 02:00:00 13.3 5 Oeste 13 Noroeste 0 -- -- 39
2020-10-13 01:00:00 -- -- -- -- -- -- -- -- --
2020-10-13 00:00:00 14 7 Este 9 Este 0 -- -- 34
2020-10-12 23:00:00 16.8 5 Este 21 Noroeste 0 -- -- 29
2020-10-12 22:00:00 18.4 17 Norte 27 Norte 0 -- -- 27
2020-10-12 21:00:00 17.8 12 Norte 27 Norte 0 -- -- 28
2020-10-12 20:00:00 18.5 20 Noroeste 31 Noroeste 0 -- -- 25
2020-10-12 19:00:00 21.1 18 Noroeste 28 Noroeste 0 -- -- 20
2020-10-12 18:00:00 22.3 15 Noroeste 29 Oeste 0 -- -- 18
2020-10-12 17:00:00 22.5 18 Noroeste 30 Oeste 0 -- -- 19
2020-10-12 16:00:00 21.5 17 Oeste 27 Oeste 0 -- -- 21
2020-10-12 15:00:00 20.6 10 Oeste 22 Oeste 0 -- -- 24
2020-10-12 14:00:00 19.5 6 Sudoeste 20 Noroeste 0 -- -- 26
2020-10-12 13:00:00 18.2 6 Nordeste 18 Este 0 -- -- 28
2020-10-12 12:00:00 16.8 12 Este 30 Este 0 -- -- 31
2020-10-12 11:00:00 14.8 21 Este 29 Este 0 -- -- 35
2020-10-12 10:00:00 13 20 Nordeste 28 Nordeste 0 -- -- 40
2020-10-12 09:00:00 11.9 17 Este 25 Nordeste 0 -- -- 42
2020-10-12 08:00:00 11.7 15 Nordeste 20 Este 0 -- -- 42
2020-10-12 07:00:00 11.9 14 Nordeste 21 Este 0 -- -- 41
2020-10-12 06:00:00 11.9 15 Este 23 Este 0 -- -- 41
2020-10-12 05:00:00 12.7 17 Este 31 Este 0 -- -- 39
2020-10-12 04:00:00 -- -- -- -- -- -- -- -- --
2020-10-12 03:00:00 14.4 21 Este 32 Este 0 -- -- 34
2020-10-12 02:00:00 14.4 19 Este 27 Este 0 -- -- 34
2020-10-12 01:00:00 15.5 16 Este 23 Este 0 -- -- 29
2020-10-12 00:00:00 15.7 15 Este 18 Este 0 -- -- 27
2020-10-11 23:00:00 17 12 Este 17 Este 0 -- -- 24
2020-10-11 22:00:00 18.1 5 Este 15 Nordeste 0 -- -- 22
2020-10-11 21:00:00 -- -- -- -- -- -- -- -- --
2020-10-11 20:00:00 -- -- -- -- -- -- -- -- --
2020-10-11 19:00:00 24.3 10 Oeste 26 Oeste 0 -- -- 16
2020-10-11 18:00:00 25.3 8 Sur 19 Sudeste 0 -- -- 22
2020-10-11 17:00:00 25.3 7 Sur 19 Sudoeste 0 -- -- 23
2020-10-11 16:00:00 25.4 12 Sur 26 Sur 0 -- -- 23
2020-10-11 15:00:00 24 5 Oeste 17 Sudoeste 0 -- -- 26
2020-10-11 14:00:00 23 8 Este 21 Este 0 -- -- 28
2020-10-11 13:00:00 21.3 11 Este 23 Este 0 -- -- 29
2020-10-11 12:00:00 19.7 13 Este 27 Este 0 -- -- 33
2020-10-11 11:00:00 18.1 18 Este 26 Este 0 -- -- 35
2020-10-11 10:00:00 16 15 Este 25 Este 0 -- -- 44
2020-10-11 09:00:00 14.9 15 Este 24 Este 0 -- -- 48
2020-10-11 08:00:00 15 11 Nordeste 18 Nordeste 0 -- -- 49
2020-10-11 07:00:00 15.7 14 Este 28 Este 0 -- -- 50
2020-10-11 06:00:00 16.6 14 Nordeste 24 Este 0 -- -- 49
2020-10-11 05:00:00 16.9 10 Nordeste 19 Nordeste 0 -- -- 49
2020-10-11 04:00:00 17.9 13 Nordeste 24 Este 0 -- -- 46
2020-10-11 03:00:00 18.3 15 Este 20 Nordeste 0 -- -- 45
2020-10-11 02:00:00 19.4 16 Este 22 Este 0 -- -- 43
2020-10-11 01:00:00 19.1 9 Nordeste 12 Nordeste 0 -- -- 43
2020-10-11 00:00:00 21.1 5 Este 15 Noroeste 0 -- -- 37
2020-10-10 23:00:00 20.8 14 Noroeste 21 Noroeste 0 -- -- 36
2020-10-10 22:00:00 22.2 18 Norte 23 Noroeste 0 -- -- 35
2020-10-10 21:00:00 22.4 15 Noroeste 17 Noroeste 0 -- -- 32
2020-10-10 20:00:00 23.8 11 Norte 20 Noroeste 0 -- -- 29
2020-10-10 19:00:00 27.1 17 Noroeste 27 Noroeste 0 -- -- 24
2020-10-10 18:00:00 28.3 18 Noroeste 29 Oeste 0 -- -- 21
2020-10-10 17:00:00 29.1 16 Oeste 29 Oeste 0 -- -- 20
2020-10-10 16:00:00 28.9 13 Noroeste 26 Oeste 0 -- -- 21
2020-10-10 15:00:00 28.4 16 Oeste 26 Oeste 0 -- -- 23
2020-10-10 14:00:00 28.2 10 Oeste 18 Oeste 0 -- -- 24
2020-10-10 13:00:00 26.5 6 Sudoeste 12 Sudoeste 0 -- -- 28
2020-10-10 12:00:00 24.5 5 Sudoeste 9 Sudoeste 0 -- -- 32
2020-10-10 11:00:00 22.2 4 Sudeste 9 Sudeste 0 -- -- 37
2020-10-10 10:00:00 19.4 4 Nordeste 12 Este 0 -- -- 43
2020-10-10 09:00:00 16.8 10 Este 15 Nordeste 0 -- -- 49
2020-10-10 08:00:00 16.2 10 Este 12 Nordeste 0 -- -- 50
2020-10-10 07:00:00 15.2 6 Nordeste 7 Nordeste 0 -- -- 53
2020-10-10 06:00:00 16.8 4 Este 7 Este 0 -- -- 47
2020-10-10 05:00:00 17.4 2 Oeste 8 Norte 0 -- -- 43
2020-10-10 04:00:00 17.3 5 Nordeste 9 Nordeste 0 -- -- 44
2020-10-10 03:00:00 17 5 Norte 8 Norte 0 -- -- 44
2020-10-10 02:00:00 18.6 3 Nordeste 8 Este 0 -- -- 40
2020-10-10 01:00:00 21.6 4 Este 17 Noroeste 0 -- -- 32
2020-10-10 00:00:00 22.4 15 Noroeste 18 Noroeste 0 -- -- 32
2020-10-09 23:00:00 22.5 14 Noroeste 19 Noroeste 0 -- -- 31
2020-10-09 22:00:00 22.3 3 Noroeste 6 Noroeste 0 -- -- 31
2020-10-09 21:00:00 22.6 6 Noroeste 9 Noroeste 0 -- -- 32
2020-10-09 20:00:00 25 2 Sudoeste 10 Oeste 0 -- -- 29
2020-10-09 19:00:00 26.6 10 Oeste 16 Oeste 0 -- -- 27
2020-10-09 18:00:00 27 11 Sudoeste 18 Sudoeste 0 -- -- 26
2020-10-09 17:00:00 27.7 10 Sudoeste 14 Sudoeste 0 -- -- 25
2020-10-09 16:00:00 28.2 8 Sudoeste 16 Sudoeste 0 -- -- 23
2020-10-09 15:00:00 27.7 7 Sur 15 Sur 0 -- -- 25
2020-10-09 14:00:00 26.8 8 Sur 16 Este 0 -- -- 27
2020-10-09 13:00:00 24.3 9 Este 18 Sudeste 0 -- -- 31
2020-10-09 12:00:00 21.9 12 Sudeste 15 Sudeste 0 -- -- 35
2020-10-09 11:00:00 20 10 Este 15 Este 0 -- -- 41
2020-10-09 10:00:00 18.1 9 Este 12 Este 0 -- -- 45
2020-10-09 09:00:00 18.7 9 Este 15 Este 0 -- -- 40
2020-10-09 08:00:00 17.7 11 Este 13 Este 0 -- -- 42
2020-10-09 07:00:00 16.6 8 Este 9 Nordeste 0 -- -- 45
2020-10-09 06:00:00 17.8 4 Norte 10 Noroeste 0 -- -- 40
2020-10-09 05:00:00 18 6 Noroeste 8 Noroeste 0 -- -- 39
2020-10-09 04:00:00 19.4 6 Oeste 10 Norte 0 -- -- 35
2020-10-09 03:00:00 18.8 6 Nordeste 8 Nordeste 0 -- -- 37
2020-10-09 02:00:00 19.7 6 Este 12 Nordeste 0 -- -- 35
2020-10-09 01:00:00 20.4 10 Nordeste 12 Nordeste 0 -- -- 33
2020-10-09 00:00:00 21.4 5 Nordeste 8 Nordeste 0 -- -- 29
2020-10-08 23:00:00 22.9 5 Norte 12 Noroeste 0 -- -- 26
2020-10-08 22:00:00 23.4 10 Noroeste 12 Noroeste 0 -- -- 27
2020-10-08 21:00:00 23.1 6 Norte 7 Norte 0 -- -- 29
2020-10-08 20:00:00 25.1 4 Norte 8 Oeste 0 -- -- 27
2020-10-08 19:00:00 28 8 Oeste 21 Sudoeste 0 -- -- 22
2020-10-08 18:00:00 30.2 9 Sudoeste 23 Sudoeste 0 -- -- 19
2020-10-08 17:00:00 30.3 8 Sur 30 Sudoeste 0 -- -- 20
2020-10-08 16:00:00 30.2 9 Sudoeste 15 Sudoeste 0 -- -- 20
2020-10-08 15:00:00 29.1 6 Sur 15 Sur 0 -- -- 23
2020-10-08 14:00:00 27.4 6 Sur 22 Este 0 -- -- 24
2020-10-08 13:00:00 26.4 13 Este 22 Este 0 -- -- 27
2020-10-08 12:00:00 25.6 17 Este 26 Este 0 -- -- 28
2020-10-08 11:00:00 24.5 17 Este 25 Este 0 -- -- 30
2020-10-08 10:00:00 21.2 12 Este 17 Este 0 -- -- 37
2020-10-08 09:00:00 20.4 14 Este 19 Este 0 -- -- 38
2020-10-08 08:00:00 19.4 14 Nordeste 18 Nordeste 0 -- -- 39
2020-10-08 07:00:00 20.6 10 Este 15 Nordeste 0 -- -- 36
2020-10-08 06:00:00 21.6 12 Este 20 Nordeste 0 -- -- 34
2020-10-08 05:00:00 21.7 15 Nordeste 23 Nordeste 0 -- -- 37
2020-10-08 04:00:00 19.7 19 Este 23 Este 0 -- -- 45
2020-10-08 03:00:00 21.2 11 Este 14 Nordeste 0 -- -- 41
2020-10-08 02:00:00 21 12 Este 17 Nordeste 0 -- -- 40
2020-10-08 01:00:00 20.2 13 Este 18 Este 0 -- -- 39
2020-10-08 00:00:00 21.2 8 Norte 13 Norte 0 -- -- 34
2020-10-07 23:00:00 21.7 10 Norte 15 Noroeste 0 -- -- 30
2020-10-07 22:00:00 20.7 8 Norte 10 Noroeste 0 -- -- 32
2020-10-07 21:00:00 21.5 5 Noroeste 6 Sudoeste 0 -- -- 33
2020-10-07 20:00:00 25.5 5 Sudoeste 9 Sudoeste 0 -- -- 30
2020-10-07 19:00:00 28.1 8 Sur 14 Sur 0 -- -- 21
2020-10-07 18:00:00 28.7 9 Sur 16 Sur 0 -- -- 22
2020-10-07 17:00:00 29.1 10 Sur 18 Sur 0 -- -- 22
2020-10-07 16:00:00 28.7 9 Sudoeste 20 Sur 0 -- -- 23
2020-10-07 15:00:00 27.5 9 Sudoeste 22 Sur 0 -- -- 34
2020-10-07 14:00:00 26.3 8 Sudeste 17 Este 0 -- -- 37
2020-10-07 13:00:00 24.4 7 Este 17 Este 0 -- -- 42
2020-10-07 12:00:00 21.8 9 Este 14 Este 0 -- -- 51
2020-10-07 11:00:00 18.9 8 Este 15 Este 0 -- -- 59
2020-10-07 10:00:00 17.4 8 Este 13 Sudeste 0 -- -- 67
2020-10-07 09:00:00 14.3 2 Noroeste 11 Noroeste 0 -- -- 74
2020-10-07 08:00:00 13.6 6 Norte 12 Este 0 -- -- 77
2020-10-07 07:00:00 13.8 8 Este 10 Este 0 -- -- 76
2020-10-07 06:00:00 15 5 Sudeste 15 Norte 0 -- -- 67
2020-10-07 05:00:00 15.3 14 Noroeste 18 Noroeste 0 -- -- 64
2020-10-07 04:00:00 17.1 9 Noroeste 19 Noroeste 0 -- -- 56
2020-10-07 03:00:00 16.9 12 Noroeste 18 Noroeste 0 -- -- 59
2020-10-07 02:00:00 18 17 Noroeste 22 Noroeste 0 -- -- 57
2020-10-07 01:00:00 17.8 13 Noroeste 18 Noroeste 0 -- -- 59
2020-10-07 00:00:00 19.8 16 Noroeste 19 Noroeste 0 -- -- 54
2020-10-06 23:00:00 19.9 15 Noroeste 19 Noroeste 0 -- -- 54
2020-10-06 22:00:00 21.2 9 Noroeste 16 Norte 0 -- -- 47
2020-10-06 21:00:00 21.9 10 Norte 14 Noroeste 0 -- -- 44
2020-10-06 20:00:00 23.8 12 Noroeste 26 Noroeste 0 -- -- 40
2020-10-06 19:00:00 26.4 17 Noroeste 32 Noroeste 0 -- -- 35
2020-10-06 18:00:00 27 20 Oeste 30 Noroeste 0 -- -- 35
2020-10-06 17:00:00 27.3 16 Noroeste -- -- -- -- -- 36
2020-10-06 16:00:00 26.7 14 Noroeste 27 Noroeste 0 -- -- 38
2020-10-06 15:00:00 25 7 Norte 22 Oeste 0 -- -- 43
2020-10-06 14:00:00 23.6 10 Noroeste 25 Noroeste 0 -- -- 47
2020-10-06 13:00:00 22.1 13 Noroeste 39 Noroeste 0 -- -- 51
2020-10-06 12:00:00 20.2 19 Oeste 25 Oeste 0 -- -- 58
2020-10-06 11:00:00 17.8 12 Noroeste 17 Noroeste 0 -- -- 69
2020-10-06 10:00:00 14.6 8 Noroeste 13 Noroeste 0 -- -- 85
2020-10-06 09:00:00 12.7 6 Oeste 13 Noroeste 0 -- -- 88
2020-10-06 08:00:00 12.5 9 Noroeste 19 Noroeste 0 -- -- 88
2020-10-06 07:00:00 12.4 15 Noroeste 18 Noroeste 0 -- -- 86
2020-10-06 06:00:00 13 13 Noroeste 22 Noroeste 0 -- -- 81
2020-10-06 05:00:00 13.2 6 Noroeste 13 Noroeste 0 -- -- 76
2020-10-06 04:00:00 13.2 10 Noroeste 22 Noroeste 0 -- -- 74
2020-10-06 03:00:00 14 20 Noroeste 24 Noroeste 0 -- -- 71
2020-10-06 02:00:00 14.4 9 Oeste 11 Oeste 0 -- -- 61
2020-10-06 01:00:00 14.5 8 Noroeste 12 Oeste 0 -- -- 59
2020-10-06 00:00:00 15.5 4 Oeste 12 Noroeste 0 -- -- 54
2020-10-05 23:00:00 15.5 6 Noroeste 13 Noroeste 0 -- -- 54
2020-10-05 22:00:00 16.6 11 Noroeste 16 Noroeste 0 -- -- 49
2020-10-05 21:00:00 16.9 12 Noroeste 20 Oeste 0 -- -- 48
2020-10-05 20:00:00 19.3 14 Oeste 32 Noroeste 0 -- -- 40
2020-10-05 19:00:00 21 22 Noroeste 33 Oeste 0 -- -- 35
2020-10-05 18:00:00 21.7 22 Noroeste 37 Noroeste 0 -- -- 29
2020-10-05 17:00:00 22 23 Noroeste 36 Noroeste 0 -- -- 29
2020-10-05 16:00:00 21.2 21 Noroeste 32 Noroeste 0 -- -- 32
2020-10-05 15:00:00 20.1 17 Noroeste 30 Noroeste 0 -- -- 35
2020-10-05 14:00:00 19.4 17 Noroeste 32 Noroeste 0 -- -- 36
2020-10-05 13:00:00 18.5 24 Noroeste 33 Noroeste 0 -- -- 37
2020-10-05 12:00:00 16.3 22 Noroeste 38 Noroeste 0 -- -- 48
2020-10-05 11:00:00 14.5 18 Noroeste 30 Noroeste 0 -- -- 58
2020-10-05 10:00:00 11.9 12 Noroeste 18 Noroeste 0 -- -- 69
2020-10-05 09:00:00 9.3 11 Noroeste 24 Noroeste 0 -- -- 78
2020-10-05 08:00:00 9.1 15 Oeste 27 Noroeste 0 -- -- 78
2020-10-05 07:00:00 9.7 13 Noroeste 18 Noroeste 0 -- -- 75
2020-10-05 06:00:00 9.7 12 Noroeste 19 Noroeste 0 -- -- 75
2020-10-05 05:00:00 9.7 8 Noroeste 23 Noroeste 0 -- -- 73
2020-10-05 04:00:00 10.7 18 Noroeste 32 Noroeste 0 -- -- 68
2020-10-05 03:00:00 10.2 13 Oeste 17 Noroeste 0 -- -- 67
2020-10-05 02:00:00 11.5 17 Noroeste 28 Noroeste 0 -- -- 61
2020-10-05 01:00:00 11.9 12 Noroeste 23 Noroeste 0 -- -- 60
2020-10-05 00:00:00 12.1 13 Noroeste 19 Noroeste 0 -- -- 57
2020-10-04 23:00:00 13.1 15 Noroeste 28 Oeste 0 -- -- 53
2020-10-04 22:00:00 16 23 Oeste 31 Oeste 0 -- -- 43
2020-10-04 21:00:00 15.8 14 Oeste 22 Oeste 0 -- -- 45
2020-10-04 20:00:00 17.9 16 Oeste 32 Oeste 0 -- -- 41
2020-10-04 19:00:00 19.7 19 Noroeste 47 Noroeste 0 -- -- 38
2020-10-04 18:00:00 20.4 28 Oeste 43 Oeste 0 -- -- 34
2020-10-04 17:00:00 20.1 24 Oeste 41 Oeste 0 -- -- 39
2020-10-04 16:00:00 19 28 Noroeste 45 Noroeste 0 -- -- 46
2020-10-04 15:00:00 16.1 23 Oeste 36 Oeste 0 -- -- 68
2020-10-04 14:00:00 15 26 Sudoeste 37 Sudoeste 0 -- -- 77
2020-10-04 13:00:00 14.5 22 Sudoeste 33 Sudoeste 0 -- -- 72
2020-10-04 12:00:00 13.9 14 Sudoeste 21 Sudoeste 0 -- -- 70
2020-10-04 11:00:00 11.9 8 Sudoeste 13 Sudoeste 0 -- -- 75
2020-10-04 10:00:00 10.8 5 Sudoeste 8 Sudoeste 0 -- -- 80
2020-10-04 09:00:00 8.8 4 Sudoeste 8 Sudoeste 0 -- -- 87
2020-10-04 08:00:00 7.9 0 Calma 10 Noroeste 0 -- -- 85
2020-10-04 07:00:00 8.5 9 Oeste 15 Oeste 0 -- -- 84
2020-10-04 06:00:00 9.3 9 Noroeste 13 Norte 0 -- -- 79
2020-10-04 05:00:00 9.7 11 Noroeste 21 Noroeste 0 -- -- 76
2020-10-04 04:00:00 10.2 14 Noroeste 21 Noroeste 0 -- -- 70
2020-10-04 03:00:00 10.5 14 Norte 19 Noroeste 0 -- -- 66
2020-10-04 02:00:00 10.5 12 Noroeste 21 Norte 0 -- -- 65
2020-10-04 01:00:00 10.9 17 Noroeste 21 Noroeste 0 -- -- 62
2020-10-04 00:00:00 11.3 15 Noroeste 19 Noroeste 0 -- -- 60
2020-10-03 23:00:00 12.1 13 Noroeste 23 Noroeste 0 -- -- 56
2020-10-03 22:00:00 14.5 19 Noroeste 30 Noroeste 0 -- -- 47
2020-10-03 21:00:00 15.4 19 Oeste 34 Oeste 0 -- -- 42
2020-10-03 20:00:00 16.5 26 Oeste 45 Oeste 0 -- -- 37
2020-10-03 19:00:00 18 29 Noroeste 42 Oeste 0 -- -- 33
2020-10-03 18:00:00 18.7 28 Noroeste 45 Noroeste 0 -- -- 30
2020-10-03 17:00:00 18.9 32 Noroeste 54 Oeste 0 -- -- 30
2020-10-03 16:00:00 18.4 32 Oeste 56 Noroeste 0 -- -- 30
2020-10-03 15:00:00 17.3 30 Noroeste 51 Oeste 0 -- -- 33
2020-10-03 14:00:00 17.2 31 Oeste 52 Oeste 0 -- -- 35
2020-10-03 13:00:00 16.3 28 Noroeste 48 Noroeste 0 -- -- 37
2020-10-03 12:00:00 14.6 35 Noroeste 55 Noroeste 0 -- -- 44
2020-10-03 11:00:00 12.6 30 Noroeste 42 Noroeste 0 -- -- 56
2020-10-03 10:00:00 9.9 14 Noroeste 29 Noroeste 0 -- -- 71
2020-10-03 09:00:00 7.6 16 Noroeste 32 Noroeste 0 -- -- 81
2020-10-03 08:00:00 7.9 24 Noroeste 34 Noroeste 0 -- -- 79
2020-10-03 07:00:00 8.5 26 Noroeste 39 Noroeste 0 -- -- 76
2020-10-03 06:00:00 8.4 23 Noroeste 29 Noroeste 0 -- -- 77
2020-10-03 05:00:00 8.4 21 Noroeste 31 Noroeste 0 -- -- 74
2020-10-03 04:00:00 8.5 25 Noroeste 33 Noroeste 0 -- -- 72
2020-10-03 03:00:00 8.9 24 Noroeste 32 Noroeste 0 -- -- 69
2020-10-03 02:00:00 9.3 20 Noroeste 34 Noroeste 0 -- -- 64
2020-10-03 01:00:00 10.3 27 Noroeste 37 Noroeste 0 -- -- 59
2020-10-03 00:00:00 11.1 31 Noroeste 43 Noroeste 0 -- -- 55
2020-10-02 23:00:00 11.2 22 Noroeste 35 Noroeste 0 -- -- 52
2020-10-02 22:00:00 12.6 19 Noroeste 39 Oeste 0 -- -- 47
2020-10-02 21:00:00 13.8 29 Oeste 43 Noroeste 0 -- -- 42
2020-10-02 20:00:00 14.5 30 Noroeste 49 Noroeste 0 -- -- 39
2020-10-02 19:00:00 15.2 34 Noroeste 59 Noroeste 0 -- -- 39
2020-10-02 18:00:00 16.1 36 Noroeste 55 Noroeste 0 -- -- 39
2020-10-02 17:00:00 16.3 35 Noroeste 58 Noroeste 0 -- -- 44
2020-10-02 16:00:00 16.2 37 Noroeste 58 Noroeste 0 -- -- 53
2020-10-02 15:00:00 16.3 37 Noroeste 77 Oeste 0 -- -- 59
2020-10-02 14:00:00 15.3 43 Oeste 74 Oeste 0 -- -- 78
2020-10-02 13:00:00 17.5 49 Oeste 73 Oeste 0 -- -- 67
2020-10-02 12:00:00 18 40 Oeste 71 Oeste 0 -- -- 74
2020-10-02 11:00:00 18 43 Oeste 67 Sudoeste 0 -- -- 78
2020-10-02 10:00:00 15.7 30 Sudoeste 48 Sudoeste 0 -- -- 93
2020-10-02 09:00:00 14.8 32 Sudoeste 45 Sudoeste 0 -- -- 93
2020-10-02 08:00:00 14.3 27 Sudoeste 40 Oeste 0 -- -- 90
2020-10-02 07:00:00 14.7 27 Sudoeste 39 Sudoeste 0 -- -- 79
2020-10-02 06:00:00 14.7 27 Sudoeste 37 Sudoeste 0 -- -- 77
2020-10-02 05:00:00 14.5 23 Sudoeste 37 Sudoeste 0 -- -- 73
2020-10-02 04:00:00 15 15 Oeste 37 Oeste 0 -- -- 66
2020-10-02 03:00:00 14.7 19 Oeste 31 Oeste 0 -- -- 66
2020-10-02 02:00:00 14.8 24 Oeste 37 Oeste 0 -- -- 63
2020-10-02 01:00:00 15.3 14 Oeste 29 Oeste 0 -- -- 59
2020-10-02 00:00:00 16.1 18 Oeste 35 Oeste 0 -- -- 57
2020-10-01 23:00:00 17.1 29 Oeste 41 Oeste 0 -- -- 54
2020-10-01 22:00:00 17.9 19 Oeste 33 Oeste 0 -- -- 51
2020-10-01 21:00:00 19.4 25 Oeste 35 Oeste 0 -- -- 48
2020-10-01 20:00:00 20.5 22 Oeste 38 Oeste 0 -- -- 44
2020-10-01 19:00:00 22.5 26 Oeste 39 Oeste 0 -- -- 38
2020-10-01 18:00:00 23.5 33 Oeste 45 Oeste 0 -- -- 37
2020-10-01 17:00:00 23.4 27 Oeste 42 Oeste 0 -- -- 40
2020-10-01 16:00:00 24.3 32 Oeste 44 Oeste 0 -- -- 37
2020-10-01 15:00:00 23.4 22 Oeste 34 Oeste 0 -- -- 40
2020-10-01 14:00:00 22.6 11 Sudoeste 28 Oeste 0 -- -- 44
2020-10-01 13:00:00 21.2 12 Sudoeste 24 Oeste 0 -- -- 46
2020-10-01 12:00:00 18.7 11 Sudoeste 23 Sudoeste 0 -- -- 53
2020-10-01 11:00:00 15.9 12 Oeste 24 Oeste 0 -- -- 63
2020-10-01 10:00:00 13.7 13 Noroeste 19 Noroeste 0 -- -- 72
2020-10-01 09:00:00 11.7 12 Noroeste 18 Noroeste 0 -- -- 85
2020-10-01 08:00:00 10.9 6 Oeste 13 Oeste 0 -- -- 90
2020-10-01 07:00:00 11.1 8 Oeste 12 Oeste 0 -- -- 87
2020-10-01 06:00:00 12.4 9 Oeste 18 Noroeste 0 -- -- 82
2020-10-01 05:00:00 13.3 9 Noroeste 13 Noroeste 0 -- -- 77
2020-10-01 04:00:00 13.7 5 Sudoeste 12 Sudoeste 0 -- -- 74
2020-10-01 03:00:00 16.2 6 Sudoeste 22 Noroeste 0 -- -- 64
2020-10-01 02:00:00 16.9 18 Noroeste 25 Noroeste 0 -- -- 64
2020-10-01 01:00:00 18 10 Noroeste 30 Noroeste 0 -- -- 56
2020-10-01 00:00:00 19.6 18 Noroeste 31 Noroeste 0 -- -- 47